createdAt,value
2018-02-27T00:00:46.901Z,100906.40
2018-02-27T00:03:48.120Z,100905.27
2018-02-27T00:06:49.357Z,100906.90
2018-02-27T00:09:50.575Z,100903.80
2018-02-27T00:12:51.813Z,100906.22
2018-02-27T00:15:53.770Z,100912.50
2018-02-27T00:18:54.973Z,100907.50
2018-02-27T00:21:56.194Z,100908.27
2018-02-27T00:24:57.429Z,100920.86
2018-02-27T00:27:58.620Z,100914.93
2018-02-27T00:30:59.848Z,100920.52
2018-02-27T00:34:01.116Z,100918.20
2018-02-27T00:37:02.373Z,100918.00
2018-02-27T00:40:03.616Z,100916.51
2018-02-27T00:43:04.860Z,100915.32
2018-02-27T00:46:06.844Z,100936.39
2018-02-27T00:49:08.809Z,100926.05
2018-02-27T00:52:10.020Z,100927.41
2018-02-27T00:55:11.248Z,100927.14
2018-02-27T00:58:12.441Z,100918.71
2018-02-27T01:01:13.836Z,100922.38
2018-02-27T01:04:15.069Z,100917.77
2018-02-27T01:07:16.274Z,100913.09
2018-02-27T01:10:17.497Z,100913.78
2018-02-27T01:13:18.753Z,100916.12
2018-02-27T01:16:19.949Z,100909.42
2018-02-27T01:19:21.265Z,100906.77
2018-02-27T01:22:23.193Z,100903.98
2018-02-27T01:25:24.416Z,100900.48
2018-02-27T01:28:25.690Z,100899.39
2018-02-27T01:31:27.673Z,100898.62
2018-02-27T01:34:28.869Z,100902.43
2018-02-27T01:37:30.087Z,100898.55
2018-02-27T01:40:31.309Z,100890.39
2018-02-27T01:43:32.510Z,100856.11
2018-02-27T01:46:33.736Z,100887.95
2018-02-27T01:49:35.044Z,100886.91
2018-02-27T01:52:36.257Z,100888.61
2018-02-27T01:55:37.462Z,100873.45
2018-02-27T01:58:38.656Z,100881.03
2018-02-27T02:01:39.881Z,100878.38
2018-02-27T02:04:41.104Z,100878.67
2018-02-27T02:07:42.341Z,100881.27
2018-02-27T02:10:43.576Z,100882.59
2018-02-27T02:13:44.796Z,100876.45
2018-02-27T02:16:46.024Z,100863.05
2018-02-27T02:19:47.225Z,100859.39
2018-02-27T02:22:48.425Z,100857.45
2018-02-27T02:25:49.676Z,100839.36
2018-02-27T02:28:51.613Z,100841.70
2018-02-27T02:31:52.820Z,100836.63
2018-02-27T02:34:54.017Z,100848.06
2018-02-27T02:37:55.222Z,100831.34
2018-02-27T02:40:57.188Z,100831.66
2018-02-27T02:43:58.385Z,100840.95
2018-02-27T02:46:59.593Z,100834.84
2018-02-27T02:50:00.788Z,100837.14
2018-02-27T02:53:02.734Z,100840.77
2018-02-27T02:56:03.996Z,100838.40
2018-02-27T02:59:05.207Z,100837.52
2018-02-27T03:02:07.200Z,100831.62
2018-02-27T03:05:08.404Z,100836.73
2018-02-27T03:08:09.605Z,100828.99
2018-02-27T03:11:11.554Z,100822.90
2018-02-27T03:14:12.765Z,100824.22
2018-02-27T03:17:14.004Z,100821.95
2018-02-27T03:20:15.964Z,100815.15
2018-02-27T03:23:17.164Z,100822.86
2018-02-27T03:26:19.109Z,100827.80
2018-02-27T03:29:20.319Z,100821.36
2018-02-27T03:32:21.513Z,100823.52
2018-02-27T03:35:22.744Z,100822.97
2018-02-27T03:38:23.944Z,100824.22
2018-02-27T03:41:25.175Z,100822.92
2018-02-27T03:44:26.373Z,100827.06
2018-02-27T03:47:27.581Z,100822.67
2018-02-27T03:50:28.813Z,100821.69
2018-02-27T03:53:30.032Z,100813.06
2018-02-27T03:56:31.269Z,100818.12
2018-02-27T03:59:32.480Z,100816.55
2018-02-27T04:02:33.715Z,100809.38
2018-02-27T04:05:34.938Z,100792.91
2018-02-27T04:08:36.877Z,100792.55
2018-02-27T04:11:38.821Z,100750.36
2018-02-27T04:14:40.028Z,100787.25
2018-02-27T04:17:41.256Z,100791.58
2018-02-27T04:20:42.465Z,100790.33
2018-02-27T04:23:43.675Z,100785.06
2018-02-27T04:26:44.877Z,100793.16
2018-02-27T04:29:46.069Z,100790.63
2018-02-27T04:32:48.017Z,100784.47
2018-02-27T04:35:49.233Z,100758.44
2018-02-27T04:38:50.452Z,100788.08
2018-02-27T04:41:51.668Z,100790.75
2018-02-27T04:44:52.883Z,100797.21
2018-02-27T04:47:54.077Z,100793.67
2018-02-27T04:50:55.303Z,100794.00
2018-02-27T04:53:56.501Z,100795.29
2018-02-27T04:56:58.337Z,100795.58
2018-02-27T04:59:59.592Z,100798.89
2018-02-27T05:03:00.825Z,100798.92
2018-02-27T05:06:02.045Z,100802.13
2018-02-27T05:09:03.998Z,100792.11
2018-02-27T05:12:05.219Z,100788.72
2018-02-27T05:15:06.436Z,100790.33
2018-02-27T05:18:07.673Z,100795.34
2018-02-27T05:21:08.906Z,100807.74
2018-02-27T05:24:10.098Z,100793.47
2018-02-27T05:27:11.317Z,100788.43
2018-02-27T05:30:12.525Z,100790.05
2018-02-27T05:33:13.733Z,100772.92
2018-02-27T05:36:15.672Z,100792.51
2018-02-27T05:39:16.885Z,100789.31
2018-02-27T05:42:18.088Z,100789.03
2018-02-27T05:45:19.291Z,100787.05
2018-02-27T05:48:21.243Z,100789.64
2018-02-27T05:51:22.467Z,100794.32
2018-02-27T05:54:23.692Z,100749.56
2018-02-27T05:57:25.637Z,100793.54
2018-02-27T06:00:26.841Z,100794.22
2018-02-27T06:03:28.812Z,100793.94
2018-02-27T06:06:30.779Z,100800.48
2018-02-27T06:09:32.013Z,100800.19
2018-02-27T06:12:33.256Z,100793.34
2018-02-27T06:15:34.473Z,100797.34
2018-02-27T06:18:35.661Z,100799.22
2018-02-27T06:21:36.893Z,100800.33
2018-02-27T06:24:38.080Z,100801.62
2018-02-27T06:27:39.304Z,100810.58
2018-02-27T06:30:40.535Z,100806.59
2018-02-27T06:33:41.740Z,100803.39
2018-02-27T06:36:43.693Z,100806.45
2018-02-27T06:39:44.904Z,100809.55
2018-02-27T06:42:46.871Z,100801.58
2018-02-27T06:45:48.836Z,100812.78
2018-02-27T06:48:50.044Z,100819.27
2018-02-27T06:51:51.273Z,100815.42
2018-02-27T06:54:53.205Z,100807.51
2018-02-27T06:57:54.432Z,100797.77
2018-02-27T07:00:55.660Z,100799.73
2018-02-27T07:03:56.875Z,100813.92
2018-02-27T07:06:58.101Z,100813.91
2018-02-27T07:10:00.079Z,100804.60
2018-02-27T07:13:02.052Z,100807.73
2018-02-27T07:16:03.279Z,100806.64
2018-02-27T07:19:04.499Z,100808.14
2018-02-27T07:22:06.449Z,100813.25
2018-02-27T07:25:07.670Z,100813.95
2018-02-27T07:28:08.884Z,100806.97
2018-02-27T07:31:10.103Z,100806.53
2018-02-27T07:34:11.311Z,100807.18
2018-02-27T07:37:13.284Z,100810.32
2018-02-27T07:40:14.476Z,100794.68
2018-02-27T07:43:15.677Z,100800.14
2018-02-27T07:46:16.878Z,100792.80
2018-02-27T07:49:18.821Z,100800.80
2018-02-27T07:52:20.043Z,100796.07
2018-02-27T07:55:21.249Z,100805.56
2018-02-27T07:58:22.460Z,100806.91
2018-02-27T08:01:24.416Z,100797.80
2018-02-27T08:04:25.626Z,100797.64
2018-02-27T08:07:26.840Z,100799.23
2018-02-27T08:10:28.037Z,100795.42
2018-02-27T08:13:29.233Z,100799.30
2018-02-27T08:16:30.437Z,100791.71
2018-02-27T08:19:32.373Z,100789.28
2018-02-27T08:22:33.570Z,100785.70
2018-02-27T08:25:34.796Z,100775.61
2018-02-27T08:28:36.049Z,100778.72
2018-02-27T08:31:37.964Z,100776.98
2018-02-27T08:34:39.200Z,100781.19
2018-02-27T08:37:40.451Z,100749.50
2018-02-27T08:40:42.380Z,100782.21
2018-02-27T08:43:43.591Z,100773.38
2018-02-27T08:46:44.813Z,100771.30
2018-02-27T08:49:46.749Z,100766.24
2018-02-27T08:52:47.990Z,100767.19
2018-02-27T08:55:49.209Z,100762.52
2018-02-27T08:58:51.163Z,100763.63
2018-02-27T09:01:52.395Z,100765.09
2018-02-27T09:04:53.593Z,100767.58
2018-02-27T09:07:54.820Z,100767.22
2018-02-27T09:10:56.026Z,100760.16
2018-02-27T09:13:57.236Z,100757.02
2018-02-27T09:16:58.468Z,100753.18
2018-02-27T09:20:00.444Z,100748.91
2018-02-27T09:23:02.404Z,100746.51
2018-02-27T09:26:03.649Z,100738.16
2018-02-27T09:29:04.874Z,100729.95
2018-02-27T09:32:06.103Z,100731.38
2018-02-27T09:35:07.297Z,100702.05
2018-02-27T09:38:08.529Z,100726.09
2018-02-27T09:41:09.720Z,100727.16
2018-02-27T09:44:10.917Z,100727.70
2018-02-27T09:47:12.155Z,100721.70
2018-02-27T09:50:13.365Z,100725.18
2018-02-27T09:53:14.604Z,100731.73
2018-02-27T09:56:15.832Z,100695.13
2018-02-27T09:59:17.055Z,100728.05
2018-02-27T10:02:18.268Z,100722.26
2018-02-27T10:05:19.484Z,100715.73
2018-02-27T10:08:21.103Z,100716.70
2018-02-27T10:11:22.376Z,100704.95
2018-02-27T10:14:23.557Z,100708.28
2018-02-27T10:17:24.765Z,100700.11
2018-02-27T10:20:26.722Z,100707.53
2018-02-27T10:23:27.942Z,100709.35
2018-02-27T10:26:29.167Z,100704.08
2018-02-27T10:29:38.066Z,100712.66
2018-02-27T10:32:39.284Z,100708.55
2018-02-27T10:35:40.486Z,100704.98
2018-02-27T10:38:41.708Z,100696.39
2018-02-27T10:41:42.909Z,100699.84
2018-02-27T10:44:44.109Z,100706.59
2018-02-27T10:47:53.105Z,100697.23
2018-02-27T10:50:54.319Z,100685.64
2018-02-27T10:53:56.268Z,100685.44
2018-02-27T10:56:57.478Z,100681.10
2018-02-27T10:59:58.704Z,100680.34
2018-02-27T11:02:59.902Z,100674.44
2018-02-27T11:06:01.124Z,100673.27
2018-02-27T11:09:02.367Z,100681.04
2018-02-27T11:12:03.591Z,100681.22
2018-02-27T11:15:04.808Z,100683.88
2018-02-27T11:18:06.129Z,100670.66
2018-02-27T11:21:07.341Z,100673.06
2018-02-27T11:24:08.541Z,100660.77
2018-02-27T11:27:09.749Z,100672.66
2018-02-27T11:30:10.942Z,100657.67
2018-02-27T11:33:12.893Z,100660.24
2018-02-27T11:36:14.112Z,100660.30
2018-02-27T11:39:15.319Z,100649.85
2018-02-27T11:42:16.525Z,100651.41
2018-02-27T11:45:17.768Z,100641.63
2018-02-27T11:48:19.723Z,100640.11
2018-02-27T11:51:20.952Z,100633.17
2018-02-27T11:54:22.177Z,100623.66
2018-02-27T11:57:24.129Z,100629.29
2018-02-27T12:00:25.336Z,100615.67
2018-02-27T12:03:26.537Z,100618.83
2018-02-27T12:06:27.767Z,100610.11
2018-02-27T12:09:28.970Z,100604.54
2018-02-27T12:12:30.169Z,100614.44
2018-02-27T12:15:32.141Z,100615.91
2018-02-27T12:18:33.329Z,100603.48
2018-02-27T12:21:34.554Z,100626.30
2018-02-27T12:24:35.773Z,100588.09
2018-02-27T12:27:36.986Z,100601.69
2018-02-27T12:30:38.201Z,100597.42
2018-02-27T12:33:39.397Z,100556.00
2018-02-27T12:36:40.626Z,100579.90
2018-02-27T12:39:41.844Z,100589.20
2018-02-27T12:42:43.789Z,100577.19
2018-02-27T12:45:45.008Z,100571.42
2018-02-27T12:48:46.232Z,100570.81
2018-02-27T12:51:47.437Z,100568.53
2018-02-27T12:54:48.626Z,100575.05
2018-02-27T12:57:49.833Z,100557.91
2018-02-27T13:00:51.792Z,100551.46
2018-02-27T13:03:52.985Z,100559.39
2018-02-27T13:06:54.935Z,100543.47
2018-02-27T13:13:04.046Z,100534.68
2018-02-27T13:16:06.012Z,100533.08
2018-02-27T13:19:07.227Z,100527.56
2018-02-27T13:22:08.433Z,100530.16
2018-02-27T13:25:09.653Z,100530.12
2018-02-27T13:28:10.914Z,100529.34
2018-02-27T13:31:12.289Z,100530.50
2018-02-27T13:34:13.508Z,100540.24
2018-02-27T13:37:15.461Z,100536.33
2018-02-27T13:40:16.674Z,100530.14
2018-02-27T13:43:17.869Z,100533.92
2018-02-27T13:46:19.108Z,100511.11
2018-02-27T13:49:24.844Z,100528.42
2018-02-27T13:52:21.614Z,100525.75
2018-02-27T13:55:22.768Z,100508.30
2018-02-27T13:58:23.992Z,100514.38
2018-02-27T14:01:25.213Z,100513.71
2018-02-27T14:04:26.440Z,100514.78
2018-02-27T14:07:27.736Z,100514.47
2018-02-27T14:10:28.961Z,100503.69
2018-02-27T14:13:30.893Z,100503.52
2018-02-27T14:16:32.124Z,100496.35
2018-02-27T14:19:33.348Z,100503.17
2018-02-27T14:22:35.161Z,100487.36
2018-02-27T14:25:38.225Z,100484.92
2018-02-27T14:28:40.150Z,100474.28
2018-02-27T14:31:41.948Z,100482.22
2018-02-27T14:34:43.782Z,100480.83
2018-02-27T14:37:45.681Z,100484.56
2018-02-27T14:40:46.973Z,100457.49
2018-02-27T14:43:50.112Z,100483.20
2018-02-27T14:46:51.683Z,100478.41
2018-02-27T14:49:53.024Z,100469.12
2018-02-27T14:52:54.601Z,100463.42
2018-02-27T14:55:56.589Z,100466.55
2018-02-27T14:58:58.400Z,100469.90
2018-02-27T15:01:59.660Z,100457.78
2018-02-27T15:05:01.839Z,100456.91
2018-02-27T15:08:03.081Z,100458.05
2018-02-27T15:11:04.788Z,100459.45
2018-02-27T15:14:07.229Z,100445.94
2018-02-27T15:17:08.493Z,100451.02
2018-02-27T15:20:09.781Z,100444.61
2018-02-27T15:23:11.095Z,100427.42
2018-02-27T15:26:12.328Z,100427.23
2018-02-27T15:29:14.330Z,100425.56
2018-02-27T15:32:15.580Z,100437.36
2018-02-27T15:35:17.534Z,100429.61
2018-02-27T15:38:18.768Z,100429.05
2018-02-27T15:41:20.168Z,100432.44
2018-02-27T15:44:22.136Z,100428.36
2018-02-27T15:47:23.390Z,100431.29
2018-02-27T15:50:24.613Z,100412.70
2018-02-27T15:53:25.825Z,100425.20
2018-02-27T15:56:27.060Z,100423.10
2018-02-27T15:59:28.280Z,100423.05
2018-02-27T16:02:30.234Z,100421.11
2018-02-27T16:05:31.445Z,100425.81
2018-02-27T16:08:32.694Z,100424.27
2018-02-27T16:11:33.953Z,100423.36
2018-02-27T16:14:35.199Z,100419.19
2018-02-27T16:17:37.201Z,100424.19
2018-02-27T16:20:38.427Z,100414.75
2018-02-27T16:23:39.669Z,100421.53
2018-02-27T16:26:40.901Z,100422.60
2018-02-27T16:29:42.140Z,100426.35
2018-02-27T16:32:44.111Z,100416.34
2018-02-27T16:35:46.076Z,100425.32
2018-02-27T16:38:47.308Z,100426.84
2018-02-27T16:41:48.513Z,100419.70
2018-02-27T16:44:50.460Z,100416.66
2018-02-27T16:47:51.680Z,100428.92
2018-02-27T16:50:52.908Z,100435.00
2018-02-27T16:53:54.174Z,100424.38
2018-02-27T16:56:56.153Z,100425.23
2018-02-27T16:59:58.124Z,100435.53
2018-02-27T17:02:59.365Z,100438.56
2018-02-27T17:06:01.340Z,100434.52
2018-02-27T17:09:02.611Z,100443.17
2018-02-27T17:12:03.821Z,100441.04
2018-02-27T17:15:05.748Z,100447.55
2018-02-27T17:18:07.073Z,100443.66
2018-02-27T17:21:08.281Z,100444.92
2018-02-27T17:24:09.478Z,100446.63
2018-02-27T17:27:11.445Z,100454.23
2018-02-27T17:30:13.406Z,100461.59
2018-02-27T17:33:14.656Z,100459.62
2018-02-27T17:36:15.892Z,100456.53
2018-02-27T17:39:17.136Z,100463.46
2018-02-27T17:42:18.388Z,100456.98
2018-02-27T17:45:20.379Z,100462.98
2018-02-27T17:48:22.373Z,100449.59
2018-02-27T17:51:23.732Z,100456.45
2018-02-27T17:54:25.446Z,100448.00
2018-02-27T17:57:27.217Z,100443.54
2018-02-27T18:00:28.553Z,100446.17
2018-02-27T18:03:31.208Z,100439.38
2018-02-27T18:06:32.525Z,100442.73
2018-02-27T18:09:33.905Z,100436.70
2018-02-27T18:12:35.266Z,100453.48
2018-02-27T18:15:36.566Z,100447.70
2018-02-27T18:18:37.809Z,100444.48
2018-02-27T18:21:39.095Z,100445.30
2018-02-27T18:24:40.321Z,100444.59
2018-02-27T18:27:41.620Z,100443.19
2018-02-27T18:30:42.896Z,100430.39
2018-02-27T18:33:44.160Z,100444.71
2018-02-27T18:36:46.141Z,100442.69
2018-02-27T18:39:48.118Z,100439.57
2018-02-27T18:42:49.468Z,100443.27
2018-02-27T18:45:50.724Z,100440.97
2018-02-27T18:48:52.010Z,100441.41
2018-02-27T18:51:53.245Z,100445.50
2018-02-27T18:54:54.475Z,100444.97
2018-02-27T18:57:55.710Z,100444.23
2018-02-27T19:00:57.723Z,100444.19
2018-02-27T19:03:58.949Z,100444.45
2018-02-27T19:07:00.969Z,100446.09
2018-02-27T19:10:02.261Z,100441.52
2018-02-27T19:13:03.537Z,100438.91
2018-02-27T19:16:04.851Z,100441.44
2018-02-27T19:19:06.082Z,100445.62
2018-02-27T19:22:08.095Z,100441.97
2018-02-27T19:25:09.325Z,100444.84
2018-02-27T19:28:11.341Z,100439.70
2018-02-27T19:31:12.595Z,100440.14
2018-02-27T19:34:13.838Z,100442.53
2018-02-27T19:37:15.831Z,100444.97
2018-02-27T19:40:17.033Z,100443.81
2018-02-27T19:43:18.249Z,100453.86
2018-02-27T19:46:20.229Z,100450.29
2018-02-27T19:49:22.225Z,100453.91
2018-02-27T19:52:23.464Z,100451.30
2018-02-27T19:55:25.419Z,100451.95
2018-02-27T19:58:26.630Z,100457.85
2018-02-27T20:01:27.849Z,100456.67
2018-02-27T20:04:29.058Z,100445.94
2018-02-27T20:07:30.285Z,100446.14
2018-02-27T20:10:32.270Z,100450.34
2018-02-27T20:13:34.235Z,100448.88
2018-02-27T20:16:35.465Z,100450.66
2018-02-27T20:19:36.684Z,100452.75
2018-02-27T20:22:44.839Z,100456.12
2018-02-27T20:25:46.106Z,100450.97
2018-02-27T20:28:53.371Z,100456.56
2018-02-27T20:31:55.351Z,100460.42
2018-02-27T20:34:57.305Z,100454.62
2018-02-27T20:37:58.538Z,100464.42
2018-02-27T20:40:59.754Z,100466.33
2018-02-27T20:44:01.727Z,100469.21
2018-02-27T20:47:03.686Z,100475.31
2018-02-27T20:50:04.926Z,100473.63
2018-02-27T20:53:06.164Z,100473.16
2018-02-27T20:56:07.377Z,100470.78
2018-02-27T20:59:08.576Z,100477.42
2018-02-27T21:02:10.552Z,100475.78
2018-02-27T21:05:12.545Z,100475.17
2018-02-27T21:08:13.751Z,100476.62
2018-02-27T21:11:14.950Z,100478.14
2018-02-27T21:14:16.932Z,100476.34
2018-02-27T21:17:18.890Z,100474.90
2018-02-27T21:20:20.118Z,100476.49
2018-02-27T21:23:21.362Z,100477.54
2018-02-27T21:26:22.593Z,100470.99
2018-02-27T21:29:24.560Z,100472.70
2018-02-27T21:32:25.874Z,100470.39
2018-02-27T21:35:27.683Z,100459.67
2018-02-27T21:38:30.172Z,100468.48
2018-02-27T21:41:32.376Z,100474.40
2018-02-27T21:44:34.690Z,100477.61
2018-02-27T21:47:37.201Z,100494.95
2018-02-27T21:50:39.848Z,100462.77
2018-02-27T21:53:42.508Z,100469.47
2018-02-27T21:56:43.805Z,100464.88
2018-02-27T21:59:45.575Z,100473.28
2018-02-27T22:02:48.045Z,100473.48
2018-02-27T22:05:50.248Z,100470.99
2018-02-27T22:08:52.082Z,100475.09
2018-02-27T22:11:53.313Z,100467.92
2018-02-27T22:14:55.302Z,100475.65
2018-02-27T22:17:57.778Z,100471.72
2018-02-27T22:20:59.033Z,100467.22
2018-02-27T22:24:00.288Z,100475.39
2018-02-27T22:27:02.025Z,100473.52
2018-02-27T22:30:03.278Z,100470.24
2018-02-27T22:33:04.553Z,100470.75
2018-02-27T22:36:05.784Z,100474.91
2018-02-27T22:39:07.838Z,100471.82
2018-02-27T22:42:09.072Z,100468.97
2018-02-27T22:45:10.290Z,100473.39
2018-02-27T22:48:12.264Z,100473.63
2018-02-27T22:51:14.244Z,100472.75
2018-02-27T22:54:16.275Z,100480.21
2018-02-27T22:57:17.504Z,100476.23
2018-02-27T23:00:35.962Z,100469.59
2018-02-27T23:03:37.906Z,100477.59
2018-02-27T23:06:39.118Z,100480.67
2018-02-27T23:09:40.332Z,100479.09
2018-02-27T23:12:41.542Z,100470.54
2018-02-27T23:15:42.776Z,100483.09
2018-02-27T23:18:43.992Z,100479.33
2018-02-27T23:21:45.233Z,100475.08
2018-02-27T23:25:03.070Z,100470.12
2018-02-27T23:28:07.956Z,100469.18
2018-02-27T23:31:09.925Z,100466.86
2018-02-27T23:34:20.104Z,100473.64
2018-02-27T23:37:21.341Z,100477.98
2018-02-27T23:40:23.345Z,100469.25
2018-02-27T23:43:24.563Z,100471.80
2018-02-27T23:46:25.821Z,100473.36
2018-02-27T23:49:27.052Z,100478.34
2018-02-27T23:52:28.273Z,100477.20
2018-02-27T23:55:29.502Z,100485.48
2018-02-27T23:58:30.857Z,100494.11
